createdAt,value
2018-11-20T00:02:29.697Z,4.33
2018-11-20T00:05:18.285Z,4.27
2018-11-20T00:08:25.161Z,4.40
2018-11-20T00:11:12.091Z,4.00
2018-11-20T00:13:49.429Z,4.50
2018-11-20T00:16:29.103Z,4.70
2018-11-20T00:19:16.337Z,4.23
2018-11-20T00:22:03.230Z,4.50
2018-11-20T00:24:54.576Z,5.00
2018-11-20T00:27:41.890Z,4.43
2018-11-20T00:30:29.164Z,4.73
2018-11-20T00:33:17.684Z,4.63
2018-11-20T00:35:58.488Z,4.47
2018-11-20T00:38:38.061Z,4.63
2018-11-20T00:41:24.989Z,4.60
2018-11-20T00:44:12.368Z,4.67
2018-11-20T00:47:00.781Z,4.80
2018-11-20T00:49:54.679Z,4.90
2018-11-20T00:52:58.396Z,4.83
2018-11-20T00:56:21.560Z,4.60
2018-11-20T00:59:21.954Z,4.83
2018-11-20T01:02:28.319Z,4.60
2018-11-20T01:05:29.335Z,4.67
2018-11-20T01:08:17.743Z,5.00
2018-11-20T01:11:09.172Z,5.10
2018-11-20T01:13:51.151Z,4.90
2018-11-20T01:16:38.404Z,4.93
2018-11-20T01:19:29.491Z,5.07
2018-11-20T01:22:16.895Z,5.00
2018-11-20T01:25:15.859Z,5.10
2018-11-20T01:28:00.621Z,5.67
2018-11-20T01:30:47.973Z,5.20
2018-11-20T01:33:35.256Z,6.03
2018-11-20T01:36:15.602Z,5.60
2018-11-20T01:39:02.858Z,5.40
2018-11-20T01:41:51.282Z,5.70
2018-11-20T01:44:45.619Z,5.47
2018-11-20T01:47:43.329Z,5.70
2018-11-20T01:50:30.358Z,6.17
2018-11-20T01:53:37.134Z,5.97
2018-11-20T01:56:24.493Z,6.53
2018-11-20T01:59:07.423Z,5.70
2018-11-20T02:01:54.326Z,6.40
2018-11-20T02:04:55.172Z,6.47
2018-11-20T02:07:49.540Z,6.53
2018-11-20T02:10:38.576Z,6.20
2018-11-20T02:14:04.045Z,6.03
2018-11-20T02:16:53.793Z,6.60
2018-11-20T02:19:41.078Z,6.73
2018-11-20T02:22:29.521Z,6.73
2018-11-20T02:25:27.162Z,6.53
2018-11-20T02:28:16.205Z,7.00
2018-11-20T02:30:54.807Z,6.50
2018-11-20T02:33:48.979Z,7.03
2018-11-20T02:36:32.619Z,7.17
2018-11-20T02:39:12.316Z,7.87
2018-11-20T02:42:06.712Z,7.90
2018-11-20T02:45:01.066Z,8.00
2018-11-20T02:47:48.349Z,8.70
2018-11-20T02:50:40.623Z,8.57
2018-11-20T02:53:27.480Z,9.70
2018-11-20T02:56:22.204Z,8.77
2018-11-20T02:59:13.427Z,9.73
2018-11-20T03:02:16.918Z,10.97
2018-11-20T03:05:05.171Z,9.53
2018-11-20T03:07:45.206Z,9.50
2018-11-20T03:10:26.757Z,9.70
2018-11-20T03:13:15.220Z,10.50
2018-11-20T03:16:07.050Z,11.30
2018-11-20T03:18:51.959Z,10.57
2018-11-20T03:21:40.463Z,9.70
2018-11-20T03:24:28.959Z,10.37
2018-11-20T03:27:20.975Z,10.10
2018-11-20T03:30:48.185Z,10.17
2018-11-20T03:33:35.522Z,10.00
2018-11-20T03:36:29.069Z,11.10
2018-11-20T03:39:20.309Z,10.23
2018-11-20T03:42:02.815Z,11.13
2018-11-20T03:44:54.167Z,10.23
2018-11-20T03:47:47.303Z,10.70
2018-11-20T03:50:34.128Z,9.87
2018-11-20T03:53:31.585Z,10.30
2018-11-20T03:56:20.079Z,10.33
2018-11-20T03:59:20.646Z,10.30
2018-11-20T04:02:21.359Z,10.67
2018-11-20T04:05:18.958Z,10.20
2018-11-20T04:08:06.398Z,10.47
2018-11-20T04:10:53.298Z,10.17
2018-11-20T04:13:56.992Z,9.90
2018-11-20T04:16:43.274Z,10.27
2018-11-20T04:19:31.744Z,9.80
2018-11-20T04:22:16.896Z,9.47
2018-11-20T04:25:08.103Z,10.03
2018-11-20T04:27:51.709Z,9.93
2018-11-20T04:31:09.462Z,10.57
2018-11-20T04:34:14.341Z,10.43
2018-11-20T04:37:26.628Z,8.93
2018-11-20T04:40:17.765Z,9.97
2018-11-20T04:43:07.139Z,9.90
2018-11-20T04:46:13.856Z,10.17
2018-11-20T04:48:54.528Z,8.97
2018-11-20T04:51:41.496Z,6.90
2018-11-20T04:54:45.220Z,10.53
2018-11-20T04:57:32.239Z,9.73
2018-11-20T05:00:26.669Z,10.00
2018-11-20T05:03:20.951Z,9.17
2018-11-20T05:06:24.271Z,9.00
2018-11-20T05:09:11.494Z,8.90
2018-11-20T05:12:02.987Z,10.47
2018-11-20T05:14:50.281Z,8.60
2018-11-20T05:17:31.101Z,10.20
2018-11-20T05:20:15.460Z,9.90
2018-11-20T05:23:08.980Z,9.87
2018-11-20T05:26:04.025Z,11.07
2018-11-20T05:28:58.550Z,10.47
2018-11-20T05:31:45.766Z,10.33
2018-11-20T05:34:34.252Z,10.30
2018-11-20T05:37:21.233Z,9.63
2018-11-20T05:40:15.784Z,11.03
2018-11-20T05:43:02.678Z,10.47
2018-11-20T05:45:54.439Z,10.20
2018-11-20T05:48:41.620Z,10.07
2018-11-20T05:51:27.448Z,10.90
2018-11-20T05:54:18.724Z,10.63
2018-11-20T05:56:55.558Z,10.13
2018-11-20T05:59:42.625Z,10.80
2018-11-20T06:02:42.890Z,9.80
2018-11-20T06:05:34.468Z,10.43
2018-11-20T06:08:40.972Z,9.50
2018-11-20T06:11:34.170Z,10.40
2018-11-20T06:14:21.468Z,10.67
2018-11-20T06:17:08.630Z,10.03
2018-11-20T06:20:06.022Z,18.97
2018-11-20T06:22:50.631Z,12.87
2018-11-20T06:25:39.166Z,10.80
2018-11-20T06:28:36.517Z,10.40
2018-11-20T06:31:27.729Z,10.43
2018-11-20T06:34:14.976Z,10.40
2018-11-20T06:37:02.352Z,10.40
2018-11-20T06:39:49.690Z,10.20
2018-11-20T06:42:50.221Z,10.60
2018-11-20T06:45:39.265Z,10.47
2018-11-20T06:48:26.295Z,11.47
2018-11-20T06:51:13.427Z,10.77
2018-11-20T06:54:08.454Z,11.00
2018-11-20T06:56:58.358Z,11.60
2018-11-20T06:59:49.912Z,11.00
2018-11-20T07:02:37.084Z,10.80
2018-11-20T07:05:16.016Z,11.27
2018-11-20T07:07:53.864Z,10.03
2018-11-20T07:10:47.047Z,11.00
2018-11-20T07:13:39.354Z,10.83
2018-11-20T07:16:54.594Z,11.97
2018-11-20T07:19:45.619Z,11.83
2018-11-20T07:22:33.682Z,12.67
2018-11-20T07:25:22.279Z,11.40
2018-11-20T07:28:19.495Z,11.27
2018-11-20T07:31:06.542Z,11.57
2018-11-20T07:33:57.640Z,11.90
2018-11-20T07:36:45.028Z,11.70
2018-11-20T07:39:27.752Z,11.87
2018-11-20T07:42:05.482Z,11.90
2018-11-20T07:44:59.769Z,10.90
2018-11-20T07:48:03.754Z,12.40
2018-11-20T07:50:56.488Z,11.83
2018-11-20T07:53:53.727Z,11.57
2018-11-20T07:56:40.780Z,12.10
2018-11-20T07:59:28.214Z,11.87
2018-11-20T08:02:09.425Z,11.37
2018-11-20T08:04:58.413Z,11.50
2018-11-20T08:07:53.105Z,10.80
2018-11-20T08:10:40.104Z,12.60
2018-11-20T08:13:20.525Z,11.37
2018-11-20T08:16:04.379Z,12.67
2018-11-20T08:18:47.592Z,12.17
2018-11-20T08:21:37.321Z,11.70
2018-11-20T08:24:24.656Z,10.83
2018-11-20T08:27:03.292Z,12.47
2018-11-20T08:29:54.763Z,12.33
2018-11-20T08:32:41.941Z,13.43
2018-11-20T08:35:45.703Z,12.30
2018-11-20T08:38:34.351Z,12.70
2018-11-20T08:41:37.987Z,13.03
2018-11-20T08:44:35.514Z,12.83
2018-11-20T08:47:22.873Z,13.40
2018-11-20T08:50:10.303Z,13.03
2018-11-20T08:53:05.067Z,13.43
2018-11-20T08:56:02.852Z,14.03
2018-11-20T08:59:06.534Z,14.23
2018-11-20T09:01:55.162Z,14.77
2018-11-20T09:04:46.771Z,16.10
2018-11-20T09:07:47.274Z,16.13
2018-11-20T09:10:51.004Z,16.03
2018-11-20T09:13:37.992Z,15.07
2018-11-20T09:16:19.205Z,15.53
2018-11-20T09:19:06.234Z,16.90
2018-11-20T09:22:00.788Z,16.13
2018-11-20T09:24:37.604Z,16.93
2018-11-20T09:27:23.319Z,16.33
2018-11-20T09:30:30.606Z,16.83
2018-11-20T09:33:07.603Z,16.83
2018-11-20T09:35:59.244Z,16.93
2018-11-20T09:38:46.341Z,17.30
2018-11-20T09:41:33.673Z,16.33
2018-11-20T09:45:19.064Z,16.17
2018-11-20T09:48:03.407Z,15.83
2018-11-20T09:50:45.673Z,17.07
2018-11-20T09:53:29.764Z,17.90
2018-11-20T09:56:30.610Z,18.17
2018-11-20T09:59:19.332Z,17.50
2018-11-20T10:02:10.956Z,17.17
2018-11-20T10:05:04.164Z,17.70
2018-11-20T10:07:51.393Z,15.23
2018-11-20T10:10:42.857Z,18.23
2018-11-20T10:13:30.022Z,15.87
2018-11-20T10:16:20.890Z,18.77
2018-11-20T10:19:18.634Z,18.93
2018-11-20T10:22:06.094Z,19.17
2018-11-20T10:25:12.933Z,15.33
2018-11-20T10:28:00.217Z,18.27
2018-11-20T10:30:48.801Z,19.57
2018-11-20T10:33:37.524Z,16.43
2018-11-20T10:36:44.382Z,19.83
2018-11-20T10:39:32.871Z,18.73
2018-11-20T10:42:21.446Z,19.33
2018-11-20T10:45:12.748Z,18.17
2018-11-20T10:48:04.238Z,19.30
2018-11-20T10:50:51.482Z,19.43
2018-11-20T10:53:40.581Z,17.73
2018-11-20T10:56:32.181Z,18.70
2018-11-20T10:59:38.668Z,17.33
2018-11-20T11:02:26.417Z,19.90
2018-11-20T11:05:13.655Z,18.83
2018-11-20T11:08:08.693Z,18.50
2018-11-20T11:11:12.019Z,15.60
2018-11-20T11:13:59.409Z,16.20
2018-11-20T11:16:45.514Z,18.93
2018-11-20T11:19:40.108Z,18.47
2018-11-20T11:22:25.795Z,18.27
2018-11-20T11:25:32.585Z,18.77
2018-11-20T11:28:19.790Z,16.80
2018-11-20T11:31:26.605Z,18.40
2018-11-20T11:34:15.157Z,16.37
2018-11-20T11:37:02.694Z,16.57
2018-11-20T11:39:53.494Z,16.77
2018-11-20T11:42:57.190Z,17.77
2018-11-20T11:45:44.462Z,16.33
2018-11-20T11:48:36.110Z,18.73
2018-11-20T11:51:27.609Z,17.07
2018-11-20T11:54:22.449Z,18.00
2018-11-20T11:57:09.728Z,18.23
2018-11-20T11:59:57.102Z,18.50
2018-11-20T12:05:47.010Z,18.43
2018-11-20T12:08:50.713Z,16.40
2018-11-20T12:11:42.306Z,15.63
2018-11-20T12:14:29.454Z,17.77
2018-11-20T12:17:30.130Z,16.93
2018-11-20T12:20:17.399Z,17.03
2018-11-20T12:23:21.193Z,17.73
2018-11-20T12:26:00.800Z,16.90
2018-11-20T12:28:51.094Z,16.90
2018-11-20T12:31:34.784Z,16.93
2018-11-20T12:34:29.249Z,15.43
2018-11-20T12:37:24.565Z,16.47
2018-11-20T12:40:10.742Z,16.60
2018-11-20T12:42:53.843Z,16.30
2018-11-20T12:45:53.895Z,17.23
2018-11-20T12:48:40.944Z,17.13
2018-11-20T12:51:27.853Z,17.50
2018-11-20T12:54:25.385Z,17.97
2018-11-20T12:57:14.060Z,18.20
2018-11-20T13:00:16.725Z,17.30
2018-11-20T13:03:13.913Z,18.00
2018-11-20T13:06:01.340Z,16.70
2018-11-20T13:09:00.916Z,17.30
2018-11-20T13:11:46.425Z,18.00
2018-11-20T13:14:33.826Z,15.87
2018-11-20T13:17:40.635Z,18.40
2018-11-20T13:20:29.525Z,17.53
2018-11-20T13:23:16.311Z,17.40
2018-11-20T13:25:54.569Z,18.50
2018-11-20T13:28:41.729Z,16.23
2018-11-20T13:31:24.618Z,17.70
2018-11-20T13:34:13.201Z,16.33
2018-11-20T13:36:56.036Z,16.83
2018-11-20T13:39:39.971Z,16.33
2018-11-20T13:42:31.857Z,16.43
2018-11-20T13:45:18.422Z,17.00
2018-11-20T13:48:01.331Z,17.97
2018-11-20T13:50:51.855Z,16.67
2018-11-20T13:53:28.148Z,17.37
2018-11-20T13:56:28.619Z,16.83
2018-11-20T13:59:16.132Z,16.53
2018-11-20T14:02:03.359Z,16.80
2018-11-20T14:04:50.643Z,16.27
2018-11-20T14:07:37.862Z,17.13
2018-11-20T14:10:37.563Z,16.27
2018-11-20T14:13:35.070Z,15.70
2018-11-20T14:16:22.271Z,16.77
2018-11-20T14:19:28.584Z,16.67
2018-11-20T14:22:15.671Z,17.00
2018-11-20T14:25:23.584Z,16.67
2018-11-20T14:28:14.278Z,16.63
2018-11-20T14:30:59.209Z,16.20
2018-11-20T14:33:56.906Z,17.50
2018-11-20T14:36:51.259Z,17.63
2018-11-20T14:39:36.679Z,17.97
2018-11-20T14:42:23.668Z,17.40
2018-11-20T14:45:15.012Z,18.13
2018-11-20T14:48:01.957Z,14.53
2018-11-20T14:50:55.029Z,16.50
2018-11-20T14:53:41.988Z,17.93
2018-11-20T14:56:18.808Z,14.13
2018-11-20T14:59:05.999Z,17.67
2018-11-20T15:02:06.428Z,16.17
2018-11-20T15:04:54.925Z,16.23
2018-11-20T15:08:05.215Z,19.80
2018-11-20T15:10:56.529Z,18.03
2018-11-20T15:13:51.528Z,18.47
2018-11-20T15:16:40.038Z,17.13
2018-11-20T15:19:46.799Z,18.33
2018-11-20T15:22:38.204Z,19.00
2018-11-20T15:25:29.845Z,17.40
2018-11-20T15:28:14.097Z,19.00
2018-11-20T15:31:14.078Z,20.63
2018-11-20T15:34:17.807Z,18.27
2018-11-20T15:37:06.423Z,18.17
2018-11-20T15:39:57.860Z,18.50
2018-11-20T15:42:44.805Z,18.43
2018-11-20T15:45:32.363Z,20.33
2018-11-20T15:48:26.525Z,19.57
2018-11-20T15:51:13.750Z,19.13
2018-11-20T15:54:11.184Z,18.47
2018-11-20T15:56:58.471Z,18.83
2018-11-20T15:59:56.029Z,20.13
2018-11-20T16:02:36.298Z,19.47
2018-11-20T16:05:31.281Z,19.00
2018-11-20T16:08:34.678Z,19.87
2018-11-20T16:11:28.965Z,19.63
2018-11-20T16:14:15.934Z,20.43
2018-11-20T16:17:22.430Z,21.00
2018-11-20T16:20:10.988Z,22.20
2018-11-20T16:23:05.595Z,21.23
2018-11-20T16:25:45.690Z,21.33
2018-11-20T16:28:46.128Z,20.47
2018-11-20T16:31:41.879Z,19.73
2018-11-20T16:34:48.539Z,19.93
2018-11-20T16:37:35.894Z,19.93
2018-11-20T16:40:24.065Z,20.77
2018-11-20T16:43:11.571Z,21.93
2018-11-20T16:45:54.658Z,19.90
2018-11-20T16:48:49.181Z,22.00
2018-11-20T16:51:36.544Z,22.57
2018-11-20T16:54:27.815Z,21.70
2018-11-20T16:57:14.806Z,20.90
2018-11-20T17:00:06.297Z,21.77
2018-11-20T17:03:00.399Z,22.53
2018-11-20T17:06:01.012Z,22.43
2018-11-20T17:08:55.368Z,21.70
2018-11-20T17:11:53.011Z,21.43
2018-11-20T17:14:56.705Z,20.40
2018-11-20T17:17:45.274Z,21.07
2018-11-20T17:20:33.373Z,20.20
2018-11-20T17:23:21.955Z,20.57
2018-11-20T17:26:00.147Z,21.10
2018-11-20T17:28:47.092Z,19.67
2018-11-20T17:31:34.406Z,21.60
2018-11-20T17:34:25.694Z,21.53
2018-11-20T17:37:22.973Z,21.43
2018-11-20T17:40:20.943Z,20.33
2018-11-20T17:43:14.970Z,20.80
2018-11-20T17:46:06.864Z,21.83
2018-11-20T17:48:49.096Z,20.47
2018-11-20T17:51:37.580Z,19.83
2018-11-20T17:54:27.263Z,21.50
2018-11-20T17:57:21.641Z,18.83
2018-11-20T18:00:12.856Z,19.77
2018-11-20T18:03:01.246Z,20.30
2018-11-20T18:05:58.994Z,20.60
2018-11-20T18:08:53.036Z,20.23
2018-11-20T18:11:40.106Z,19.57
2018-11-20T18:14:27.337Z,19.43
2018-11-20T18:17:20.126Z,18.43
2018-11-20T18:20:06.026Z,19.10
2018-11-20T18:22:54.503Z,20.53
2018-11-20T18:25:43.670Z,19.40
2018-11-20T18:28:23.667Z,19.17
2018-11-20T18:31:21.208Z,18.63
2018-11-20T18:34:18.762Z,19.37
2018-11-20T18:37:08.124Z,19.47
2018-11-20T18:39:56.589Z,17.20
2018-11-20T18:42:43.642Z,19.23
2018-11-20T18:45:31.032Z,18.63
2018-11-20T18:51:30.965Z,18.27
2018-11-20T18:54:18.397Z,19.20
2018-11-20T18:57:09.871Z,19.10
2018-11-20T19:00:04.621Z,18.50
2018-11-20T19:02:55.975Z,19.17
2018-11-20T19:05:43.235Z,19.07
2018-11-20T19:08:31.786Z,19.70
2018-11-20T19:11:19.264Z,19.63
2018-11-20T19:14:06.701Z,19.63
2018-11-20T19:16:53.872Z,17.87
2018-11-20T19:19:54.701Z,18.83
2018-11-20T19:22:41.731Z,18.90
2018-11-20T19:25:45.539Z,18.23
2018-11-20T19:28:45.979Z,18.83
2018-11-20T19:31:53.023Z,20.10
2018-11-20T19:34:34.039Z,17.47
2018-11-20T19:37:25.396Z,18.33
2018-11-20T19:40:09.869Z,19.03
2018-11-20T19:43:01.339Z,19.50
2018-11-20T19:45:58.863Z,17.10
2018-11-20T19:48:51.839Z,18.27
2018-11-20T19:52:00.771Z,19.10
2018-11-20T19:54:43.788Z,17.97
2018-11-20T19:57:48.304Z,15.07
2018-11-20T20:00:30.382Z,14.30
2018-11-20T20:03:31.049Z,15.90
2018-11-20T20:06:18.162Z,15.13
2018-11-20T20:09:05.360Z,17.00
2018-11-20T20:12:08.310Z,16.77
2018-11-20T20:14:59.533Z,18.33
2018-11-20T20:17:50.914Z,16.97
2018-11-20T20:20:38.104Z,17.60
2018-11-20T20:23:25.450Z,14.87
2018-11-20T20:26:20.105Z,13.17
2018-11-20T20:29:23.453Z,16.23
2018-11-20T20:32:17.640Z,15.63
2018-11-20T20:35:05.117Z,15.50
2018-11-20T20:37:52.531Z,16.90
2018-11-20T20:40:59.375Z,16.80
2018-11-20T20:43:46.629Z,14.43
2018-11-20T20:46:34.068Z,17.57
2018-11-20T20:49:28.450Z,18.50
2018-11-20T20:52:15.875Z,17.60
2018-11-20T20:55:03.214Z,17.70
2018-11-20T20:58:03.942Z,19.13
2018-11-20T21:00:51.313Z,15.87
2018-11-20T21:03:40.371Z,16.87
2018-11-20T21:06:31.840Z,17.17
2018-11-20T21:09:19.121Z,17.13
2018-11-20T21:12:13.832Z,18.87
2018-11-20T21:15:05.084Z,16.83
2018-11-20T21:17:51.963Z,16.63
2018-11-20T21:20:46.570Z,18.87
2018-11-20T21:23:37.671Z,17.83
2018-11-20T21:26:26.278Z,15.83
2018-11-20T21:29:13.599Z,16.80
2018-11-20T21:32:11.209Z,17.70
2018-11-20T21:35:02.659Z,15.13
2018-11-20T21:37:49.803Z,13.40
2018-11-20T21:40:32.272Z,17.07
2018-11-20T21:43:23.753Z,14.93
2018-11-20T21:46:12.400Z,16.87
2018-11-20T21:49:10.230Z,15.47
2018-11-20T21:51:58.725Z,16.30
2018-11-20T21:54:50.152Z,17.47
2018-11-20T21:57:41.357Z,17.30
2018-11-20T22:00:48.958Z,16.87
2018-11-20T22:03:36.111Z,17.30
2018-11-20T22:07:19.890Z,17.23
2018-11-20T22:10:06.431Z,17.80
2018-11-20T22:12:52.677Z,16.13
2018-11-20T22:15:39.051Z,16.83
2018-11-20T22:18:25.365Z,17.97
2018-11-20T22:21:15.583Z,17.43
2018-11-20T22:24:02.130Z,18.93
2018-11-20T22:26:58.418Z,17.67
2018-11-20T22:29:49.167Z,18.17
2018-11-20T22:32:35.705Z,17.70
2018-11-20T22:35:16.131Z,17.13
2018-11-20T22:38:04.307Z,16.70
2018-11-20T22:40:50.473Z,17.27
2018-11-20T22:43:53.053Z,17.50
2018-11-20T22:46:38.586Z,16.87
2018-11-20T22:49:25.266Z,18.17
2018-11-20T22:52:13.098Z,17.20
2018-11-20T22:55:12.946Z,17.00
2018-11-20T22:57:59.115Z,18.07
2018-11-20T23:00:45.236Z,16.90
2018-11-20T23:03:41.771Z,16.93
2018-11-20T23:06:30.982Z,19.87
2018-11-20T23:08:59.533Z,21.23
2018-11-20T23:11:28.046Z,20.70
2018-11-20T23:13:56.549Z,20.67
2018-11-20T23:16:25.089Z,22.03
2018-11-20T23:18:53.561Z,19.63
2018-11-20T23:21:23.245Z,21.53
2018-11-20T23:23:50.668Z,20.67
2018-11-20T23:26:19.290Z,22.73
2018-11-20T23:28:47.768Z,20.03
2018-11-20T23:31:16.276Z,19.93
2018-11-20T23:33:44.806Z,21.47
2018-11-20T23:36:13.404Z,20.27
2018-11-20T23:38:41.932Z,21.60
2018-11-20T23:41:10.561Z,20.77
2018-11-20T23:43:39.049Z,19.93
2018-11-20T23:46:07.654Z,21.03
2018-11-20T23:48:36.149Z,19.70
2018-11-20T23:51:04.771Z,17.47
2018-11-20T23:53:33.289Z,18.80
2018-11-20T23:56:01.834Z,20.43
2018-11-20T23:58:30.370Z,19.83
